createdAt,value
2022-08-26T00:01:52.337Z,10.80
2022-08-26T00:04:20.064Z,11.07
2022-08-26T00:06:48.997Z,11.35
2022-08-26T00:09:16.876Z,12.68
2022-08-26T00:11:44.844Z,12.82
2022-08-26T00:14:13.644Z,11.43
2022-08-26T00:16:48.103Z,11.15
2022-08-26T00:19:17.803Z,10.60
2022-08-26T00:21:45.953Z,12.18
2022-08-26T00:24:15.164Z,12.20
2022-08-26T00:26:43.344Z,10.65
2022-08-26T00:29:11.007Z,11.45
2022-08-26T00:31:38.951Z,12.93
2022-08-26T00:34:09.570Z,12.40
2022-08-26T00:36:37.800Z,11.88
2022-08-26T00:39:07.998Z,12.25
2022-08-26T00:41:38.461Z,10.52
2022-08-26T00:44:06.811Z,12.32
2022-08-26T00:46:36.017Z,11.25
2022-08-26T00:49:12.022Z,11.75
2022-08-26T00:51:43.370Z,11.50
2022-08-26T00:54:11.129Z,13.40
2022-08-26T00:56:43.092Z,13.75
2022-08-26T00:59:12.820Z,10.90
2022-08-26T01:01:42.246Z,12.60
2022-08-26T01:04:14.984Z,15.73
2022-08-26T01:06:42.635Z,13.82
2022-08-26T01:09:12.182Z,13.40
2022-08-26T01:11:41.605Z,12.65
2022-08-26T01:14:09.802Z,13.40
2022-08-26T01:16:37.594Z,12.63
2022-08-26T01:19:08.779Z,12.32
2022-08-26T01:21:40.581Z,12.38
2022-08-26T01:24:10.929Z,12.00
2022-08-26T01:26:41.214Z,13.68
2022-08-26T01:29:12.762Z,11.57
2022-08-26T01:31:42.324Z,12.27
2022-08-26T01:34:13.246Z,13.85
2022-08-26T01:36:41.058Z,12.52
2022-08-26T01:39:11.340Z,12.50
2022-08-26T01:41:39.613Z,11.93
2022-08-26T01:44:09.698Z,12.38
2022-08-26T01:46:37.687Z,12.30
2022-08-26T01:49:06.722Z,12.63
2022-08-26T01:51:37.023Z,13.18
2022-08-26T01:54:05.152Z,12.18
2022-08-26T01:56:36.453Z,11.68
2022-08-26T01:59:06.724Z,11.57
2022-08-26T02:01:34.843Z,13.18
2022-08-26T02:04:07.102Z,12.32
2022-08-26T02:06:36.708Z,13.35
2022-08-26T02:09:05.029Z,18.88
2022-08-26T02:11:34.452Z,13.85
2022-08-26T02:14:06.043Z,11.88
2022-08-26T02:16:37.661Z,13.50
2022-08-26T02:19:05.852Z,12.88
2022-08-26T02:21:36.276Z,12.75
2022-08-26T02:24:09.395Z,12.02
2022-08-26T02:26:39.515Z,12.63
2022-08-26T02:29:08.236Z,13.30
2022-08-26T02:31:36.124Z,14.00
2022-08-26T02:34:11.368Z,12.63
2022-08-26T02:36:39.779Z,11.88
2022-08-26T02:39:07.509Z,13.77
2022-08-26T02:41:36.228Z,13.25
2022-08-26T02:44:14.221Z,12.80
2022-08-26T02:46:42.875Z,12.82
2022-08-26T02:49:15.012Z,12.13
2022-08-26T02:51:43.198Z,12.65
2022-08-26T02:54:10.784Z,12.40
2022-08-26T02:56:38.700Z,13.00
2022-08-26T02:59:06.872Z,13.45
2022-08-26T03:01:37.002Z,14.15
2022-08-26T03:04:05.766Z,12.05
2022-08-26T03:06:33.541Z,12.65
2022-08-26T03:09:01.715Z,12.80
2022-08-26T03:11:33.000Z,12.68
2022-08-26T03:14:03.428Z,13.48
2022-08-26T03:16:32.658Z,14.10
2022-08-26T03:19:02.833Z,12.80
2022-08-26T03:21:31.445Z,12.57
2022-08-26T03:23:59.708Z,12.73
2022-08-26T03:26:29.098Z,14.10
2022-08-26T03:29:15.049Z,12.77
2022-08-26T03:31:42.867Z,14.07
2022-08-26T03:34:12.003Z,13.43
2022-08-26T03:36:39.646Z,13.15
2022-08-26T03:39:09.489Z,13.38
2022-08-26T03:41:37.646Z,13.18
2022-08-26T03:44:05.358Z,13.55
2022-08-26T03:46:33.946Z,13.77
2022-08-26T03:49:02.120Z,13.57
2022-08-26T03:51:31.647Z,14.52
2022-08-26T03:54:03.040Z,13.27
2022-08-26T03:56:30.991Z,13.45
2022-08-26T03:59:00.364Z,13.38
2022-08-26T04:01:28.551Z,13.60
2022-08-26T04:04:00.283Z,13.13
2022-08-26T04:06:29.513Z,14.93
2022-08-26T04:08:59.949Z,12.35
2022-08-26T04:11:30.347Z,13.30
2022-08-26T04:14:00.651Z,14.02
2022-08-26T04:16:29.158Z,13.30
2022-08-26T04:18:56.940Z,13.95
2022-08-26T04:21:24.914Z,14.00
2022-08-26T04:23:52.664Z,13.15
2022-08-26T04:26:22.380Z,14.20
2022-08-26T04:28:50.564Z,15.15
2022-08-26T04:31:19.018Z,18.80
2022-08-26T04:33:47.821Z,16.50
2022-08-26T04:36:19.958Z,14.15
2022-08-26T04:38:48.084Z,15.65
2022-08-26T04:41:17.031Z,14.43
2022-08-26T04:43:46.976Z,21.17
2022-08-26T04:46:17.199Z,15.23
2022-08-26T04:48:45.052Z,14.68
2022-08-26T04:51:12.918Z,18.33
2022-08-26T04:53:40.511Z,14.95
2022-08-26T04:56:08.552Z,14.00
2022-08-26T04:58:38.193Z,14.70
2022-08-26T05:01:08.294Z,13.50
2022-08-26T05:03:36.929Z,12.95
2022-08-26T05:06:04.892Z,13.65
2022-08-26T05:08:32.727Z,15.18
2022-08-26T05:11:00.369Z,16.33
2022-08-26T05:13:28.649Z,15.57
2022-08-26T05:16:01.123Z,14.57
2022-08-26T05:18:31.168Z,14.35
2022-08-26T05:20:58.793Z,15.95
2022-08-26T05:23:26.373Z,14.13
2022-08-26T05:25:59.356Z,14.45
2022-08-26T05:28:29.008Z,13.35
2022-08-26T05:30:56.981Z,15.27
2022-08-26T05:33:24.873Z,14.68
2022-08-26T05:35:53.981Z,13.82
2022-08-26T05:38:22.975Z,12.40
2022-08-26T05:40:52.793Z,14.27
2022-08-26T05:43:21.344Z,11.20
2022-08-26T05:45:49.868Z,12.32
2022-08-26T05:48:18.136Z,15.98
2022-08-26T05:50:47.085Z,12.48
2022-08-26T05:53:17.680Z,14.02
2022-08-26T05:55:46.399Z,11.85
2022-08-26T05:58:14.609Z,13.80
2022-08-26T06:00:45.261Z,13.63
2022-08-26T06:03:12.882Z,10.38
2022-08-26T06:05:41.107Z,13.32
2022-08-26T06:08:15.084Z,10.93
2022-08-26T06:10:48.155Z,9.73
2022-08-26T06:13:18.303Z,10.43
2022-08-26T06:15:46.945Z,10.90
2022-08-26T06:18:15.461Z,11.35
2022-08-26T06:20:44.144Z,10.30
2022-08-26T06:23:43.891Z,9.32
2022-08-26T06:26:13.498Z,10.07
2022-08-26T06:28:41.123Z,10.10
2022-08-26T06:31:13.156Z,10.43
2022-08-26T06:33:40.875Z,9.23
2022-08-26T06:36:08.599Z,9.50
2022-08-26T06:38:37.144Z,9.35
2022-08-26T06:41:04.761Z,10.32
2022-08-26T06:43:33.729Z,14.20
2022-08-26T06:46:02.480Z,11.60
2022-08-26T06:48:32.471Z,10.75
2022-08-26T06:51:04.817Z,11.13
2022-08-26T06:53:33.304Z,11.80
2022-08-26T06:56:03.764Z,10.75
2022-08-26T06:58:31.497Z,10.75
2022-08-26T07:01:09.089Z,9.90
2022-08-26T07:03:39.582Z,10.50
2022-08-26T07:06:07.900Z,9.02
2022-08-26T07:08:35.864Z,9.23
2022-08-26T07:11:05.349Z,12.20
2022-08-26T07:13:34.703Z,10.32
2022-08-26T07:16:05.068Z,11.05
2022-08-26T07:18:34.342Z,9.90
2022-08-26T07:21:02.438Z,9.15
2022-08-26T07:23:30.533Z,9.25
2022-08-26T07:25:58.127Z,8.50
2022-08-26T07:28:26.368Z,8.35
2022-08-26T07:30:53.978Z,14.70
2022-08-26T07:33:22.939Z,8.85
2022-08-26T07:35:50.883Z,9.73
2022-08-26T07:38:18.628Z,9.00
2022-08-26T07:40:47.319Z,9.15
2022-08-26T07:43:15.657Z,11.40
2022-08-26T07:45:44.581Z,9.38
2022-08-26T07:48:12.232Z,9.82
2022-08-26T07:50:49.468Z,9.80
2022-08-26T07:53:19.424Z,9.15
2022-08-26T07:55:47.119Z,9.20
2022-08-26T07:58:14.707Z,8.98
2022-08-26T08:00:43.591Z,10.57
2022-08-26T08:03:12.276Z,10.20
2022-08-26T08:05:43.360Z,9.27
2022-08-26T08:08:21.860Z,9.13
2022-08-26T08:10:55.841Z,8.38
2022-08-26T08:13:24.234Z,9.65
2022-08-26T08:15:52.210Z,8.75
2022-08-26T08:18:20.584Z,9.63
2022-08-26T08:20:59.073Z,10.93
2022-08-26T08:23:33.239Z,10.98
2022-08-26T08:26:01.562Z,9.20
2022-08-26T08:28:29.300Z,9.85
2022-08-26T08:30:57.714Z,8.65
2022-08-26T08:33:26.063Z,10.63
2022-08-26T08:35:55.345Z,10.27
2022-08-26T08:38:23.045Z,10.90
2022-08-26T08:40:51.956Z,9.48
2022-08-26T08:43:24.637Z,8.20
2022-08-26T08:45:54.965Z,8.85
2022-08-26T08:48:27.732Z,8.75
2022-08-26T08:50:59.899Z,8.18
2022-08-26T08:53:32.990Z,8.32
2022-08-26T08:56:05.368Z,8.98
2022-08-26T08:58:40.101Z,8.75
2022-08-26T09:01:11.629Z,9.15
2022-08-26T09:03:43.526Z,8.98
2022-08-26T09:06:18.838Z,8.30
2022-08-26T09:08:47.834Z,8.23
2022-08-26T09:11:18.613Z,8.38
2022-08-26T09:13:48.949Z,8.48
2022-08-26T09:16:19.169Z,10.25
2022-08-26T09:18:54.072Z,9.63
2022-08-26T09:21:25.292Z,8.05
2022-08-26T09:23:53.704Z,9.15
2022-08-26T09:26:25.886Z,8.45
2022-08-26T09:28:57.255Z,9.13
2022-08-26T09:31:27.378Z,8.45
2022-08-26T09:34:06.089Z,8.82
2022-08-26T09:36:41.107Z,9.35
2022-08-26T09:39:25.259Z,9.23
2022-08-26T09:42:02.619Z,8.85
2022-08-26T09:44:30.548Z,9.25
2022-08-26T09:47:00.772Z,9.98
2022-08-26T09:49:35.577Z,9.48
2022-08-26T09:52:07.175Z,9.80
2022-08-26T09:54:35.416Z,9.88
2022-08-26T09:57:17.845Z,9.90
2022-08-26T09:59:45.744Z,9.15
2022-08-26T10:02:34.410Z,9.13
2022-08-26T10:05:09.213Z,9.45
2022-08-26T10:07:44.436Z,10.20
2022-08-26T10:10:14.896Z,9.65
2022-08-26T10:12:48.528Z,9.23
2022-08-26T10:15:16.712Z,13.48
2022-08-26T10:17:47.357Z,10.13
2022-08-26T10:20:23.309Z,13.05
2022-08-26T10:22:56.415Z,9.57
2022-08-26T10:25:26.004Z,8.55
2022-08-26T10:27:55.779Z,10.02
2022-08-26T10:30:27.248Z,7.93
2022-08-26T10:32:57.810Z,9.25
2022-08-26T10:35:26.983Z,9.00
2022-08-26T10:37:59.200Z,8.48
2022-08-26T10:40:28.466Z,8.40
2022-08-26T10:42:56.956Z,8.85
2022-08-26T10:45:26.923Z,8.52
2022-08-26T10:47:56.712Z,9.48
2022-08-26T10:50:26.587Z,10.00
2022-08-26T10:53:00.452Z,10.55
2022-08-26T10:55:34.863Z,12.93
2022-08-26T10:58:09.171Z,10.65
2022-08-26T11:01:00.712Z,10.48
2022-08-26T11:03:32.428Z,12.13
2022-08-26T11:06:16.649Z,8.25
2022-08-26T11:08:47.853Z,10.10
2022-08-26T11:11:30.413Z,8.93
2022-08-26T11:14:02.818Z,7.45
2022-08-26T11:16:35.855Z,8.90
2022-08-26T11:19:11.548Z,9.90
2022-08-26T11:21:44.080Z,8.88
2022-08-26T11:24:26.995Z,8.48
2022-08-26T11:26:57.018Z,8.45
2022-08-26T11:29:39.872Z,10.88
2022-08-26T11:32:07.451Z,7.97
2022-08-26T11:34:56.304Z,8.63
2022-08-26T11:37:25.480Z,8.23
2022-08-26T11:39:57.271Z,9.38
2022-08-26T11:42:31.037Z,8.77
2022-08-26T11:44:59.859Z,10.05
2022-08-26T11:47:32.495Z,7.65
2022-08-26T11:50:11.171Z,8.20
2022-08-26T11:52:39.057Z,11.88
2022-08-26T11:55:09.150Z,8.10
2022-08-26T11:57:44.896Z,7.80
2022-08-26T12:00:22.290Z,9.13
2022-08-26T12:02:50.829Z,8.77
2022-08-26T12:05:22.864Z,8.45
2022-08-26T12:07:53.115Z,9.15
2022-08-26T12:10:29.742Z,7.97
2022-08-26T12:12:59.959Z,8.02
2022-08-26T12:15:29.655Z,9.10
2022-08-26T12:17:57.936Z,9.10
2022-08-26T12:20:45.755Z,8.45
2022-08-26T12:23:23.821Z,8.73
2022-08-26T12:25:52.665Z,8.85
2022-08-26T12:28:25.131Z,10.15
2022-08-26T12:31:03.804Z,8.77
2022-08-26T12:33:36.962Z,8.30
2022-08-26T12:36:05.099Z,9.43
2022-08-26T12:38:33.854Z,8.38
2022-08-26T12:41:01.936Z,8.70
2022-08-26T12:43:41.640Z,9.82
2022-08-26T12:46:11.423Z,9.70
2022-08-26T12:48:41.166Z,8.73
2022-08-26T12:51:13.994Z,9.73
2022-08-26T12:53:43.122Z,10.10
2022-08-26T12:56:22.478Z,11.15
2022-08-26T12:59:02.750Z,9.20
2022-08-26T13:01:37.903Z,9.80
2022-08-26T13:04:06.981Z,9.38
2022-08-26T13:06:34.929Z,9.15
2022-08-26T13:09:06.172Z,9.27
2022-08-26T13:11:35.568Z,9.70
2022-08-26T13:14:07.065Z,14.25
2022-08-26T13:16:35.412Z,10.80
2022-08-26T13:19:04.523Z,8.23
2022-08-26T13:21:37.694Z,8.30
2022-08-26T13:24:06.768Z,8.68
2022-08-26T13:26:35.081Z,8.93
2022-08-26T13:29:09.594Z,10.70
2022-08-26T13:31:39.546Z,8.77
2022-08-26T13:34:08.285Z,8.00
2022-08-26T13:36:35.925Z,10.30
2022-08-26T13:39:03.684Z,11.02
2022-08-26T13:41:32.039Z,8.98
2022-08-26T13:44:00.223Z,8.45
2022-08-26T13:46:29.705Z,8.70
2022-08-26T13:48:57.913Z,14.73
2022-08-26T13:51:26.479Z,14.20
2022-08-26T13:53:54.731Z,9.20
2022-08-26T13:56:22.809Z,10.02
2022-08-26T13:58:50.614Z,10.15
2022-08-26T14:01:19.084Z,10.20
2022-08-26T14:03:48.119Z,12.48
2022-08-26T14:06:16.052Z,10.68
2022-08-26T14:08:43.995Z,9.18
2022-08-26T14:11:11.592Z,9.60
2022-08-26T14:13:39.425Z,9.93
2022-08-26T14:16:10.068Z,9.52
2022-08-26T14:18:41.779Z,10.15
2022-08-26T14:21:13.080Z,9.50
2022-08-26T14:23:41.401Z,11.13
2022-08-26T14:26:14.304Z,9.05
2022-08-26T14:28:56.899Z,7.63
2022-08-26T14:31:26.685Z,8.63
2022-08-26T14:34:01.092Z,8.18
2022-08-26T14:36:31.986Z,7.68
2022-08-26T14:39:01.800Z,8.45
2022-08-26T14:41:30.192Z,7.43
2022-08-26T14:44:00.000Z,8.73
2022-08-26T14:46:29.148Z,10.93
2022-08-26T14:49:01.586Z,7.18
2022-08-26T14:51:31.803Z,8.48
2022-08-26T14:54:14.482Z,8.75
2022-08-26T14:56:44.908Z,7.72
2022-08-26T14:59:12.696Z,8.10
2022-08-26T15:01:40.361Z,7.85
2022-08-26T15:04:08.252Z,18.55
2022-08-26T15:06:37.880Z,7.65
2022-08-26T15:09:06.149Z,8.32
2022-08-26T15:11:34.487Z,8.60
2022-08-26T15:14:02.543Z,8.95
2022-08-26T15:16:30.403Z,8.50
2022-08-26T15:18:58.435Z,8.45
2022-08-26T15:21:26.979Z,8.93
2022-08-26T15:23:56.340Z,7.93
2022-08-26T15:26:24.966Z,7.63
2022-08-26T15:28:52.676Z,7.82
2022-08-26T15:31:21.113Z,7.07
2022-08-26T15:33:49.369Z,6.63
2022-08-26T15:36:17.366Z,6.90
2022-08-26T15:38:51.107Z,7.28
2022-08-26T15:41:20.282Z,6.00
2022-08-26T15:43:49.005Z,5.90
2022-08-26T15:46:20.452Z,6.05
2022-08-26T15:48:48.323Z,6.20
2022-08-26T15:51:20.734Z,7.80
2022-08-26T15:53:50.620Z,7.53
2022-08-26T15:56:18.367Z,8.73
2022-08-26T15:58:47.803Z,7.63
2022-08-26T16:01:15.468Z,7.40
2022-08-26T16:03:55.719Z,7.10
2022-08-26T16:06:25.692Z,8.00
2022-08-26T16:08:53.385Z,7.75
2022-08-26T16:11:21.358Z,7.07
2022-08-26T16:13:51.164Z,7.38
2022-08-26T16:16:19.729Z,6.95
2022-08-26T16:18:49.512Z,7.30
2022-08-26T16:21:17.556Z,7.18
2022-08-26T16:23:45.564Z,28.30
2022-08-26T16:26:14.663Z,7.68
2022-08-26T16:28:43.626Z,8.20
2022-08-26T16:31:13.164Z,11.45
2022-08-26T16:33:41.002Z,7.35
2022-08-26T16:36:09.431Z,31.98
2022-08-26T16:38:38.300Z,12.68
2022-08-26T16:41:06.622Z,19.27
2022-08-26T16:43:34.600Z,8.80
2022-08-26T16:46:02.543Z,8.60
2022-08-26T16:48:31.506Z,8.43
2022-08-26T16:50:59.183Z,8.10
2022-08-26T16:53:26.799Z,7.60
2022-08-26T16:55:55.040Z,8.68
2022-08-26T16:58:22.694Z,8.63
2022-08-26T17:00:50.316Z,8.38
2022-08-26T17:03:17.916Z,8.30
2022-08-26T17:05:46.950Z,8.45
2022-08-26T17:08:21.808Z,8.30
2022-08-26T17:10:56.428Z,7.90
2022-08-26T17:13:35.381Z,8.15
2022-08-26T17:16:04.818Z,8.20
2022-08-26T17:18:33.279Z,8.05
2022-08-26T17:21:02.996Z,10.38
2022-08-26T17:23:32.223Z,10.40
2022-08-26T17:26:00.004Z,8.50
2022-08-26T17:28:36.559Z,8.85
2022-08-26T17:31:04.410Z,8.85
2022-08-26T17:33:32.738Z,10.50
2022-08-26T17:36:02.871Z,12.02
2022-08-26T17:38:30.852Z,11.82
2022-08-26T17:40:58.725Z,14.63
2022-08-26T17:43:27.297Z,13.60
2022-08-26T17:45:58.209Z,16.75
2022-08-26T17:48:32.319Z,16.85
2022-08-26T17:51:00.281Z,17.52
2022-08-26T17:53:29.339Z,16.70
2022-08-26T17:55:57.074Z,16.95
2022-08-26T17:58:24.700Z,17.90
2022-08-26T18:00:54.521Z,15.82
2022-08-26T18:03:22.248Z,17.80
2022-08-26T18:05:51.156Z,17.67
2022-08-26T18:08:18.893Z,17.67
2022-08-26T18:10:48.163Z,17.88
2022-08-26T18:13:16.546Z,19.27
2022-08-26T18:15:45.312Z,19.48
2022-08-26T18:18:13.199Z,21.67
2022-08-26T18:20:42.269Z,20.17
2022-08-26T18:23:10.372Z,18.42
2022-08-26T18:25:40.514Z,18.85
2022-08-26T18:28:10.261Z,20.70
2022-08-26T18:30:38.081Z,21.23
2022-08-26T18:33:05.855Z,19.08
2022-08-26T18:35:33.586Z,19.92
2022-08-26T18:38:01.428Z,18.85
2022-08-26T18:40:39.426Z,17.55
2022-08-26T18:43:07.104Z,18.15
2022-08-26T18:45:36.316Z,18.27
2022-08-26T18:48:04.449Z,19.13
2022-08-26T18:50:32.155Z,20.52
2022-08-26T18:52:59.987Z,19.52
2022-08-26T18:55:27.619Z,19.33
2022-08-26T18:57:55.241Z,19.65
2022-08-26T19:00:23.620Z,20.92
2022-08-26T19:02:55.305Z,22.20
2022-08-26T19:05:24.053Z,22.52
2022-08-26T19:07:52.060Z,20.85
2022-08-26T19:10:19.995Z,22.52
2022-08-26T19:12:51.806Z,22.20
2022-08-26T19:15:20.286Z,22.85
2022-08-26T19:17:48.117Z,22.10
2022-08-26T19:20:17.188Z,22.35
2022-08-26T19:22:45.922Z,21.38
2022-08-26T19:25:14.186Z,26.02
2022-08-26T19:27:41.991Z,22.75
2022-08-26T19:30:10.294Z,24.20
2022-08-26T19:32:38.248Z,24.25
2022-08-26T19:35:08.809Z,23.73
2022-08-26T19:37:38.208Z,23.77
2022-08-26T19:40:06.649Z,21.73
2022-08-26T19:42:34.717Z,21.30
2022-08-26T19:45:24.812Z,24.65
2022-08-26T19:47:53.640Z,22.35
2022-08-26T19:50:21.947Z,21.50
2022-08-26T19:52:50.869Z,21.95
2022-08-26T19:55:19.552Z,20.38
2022-08-26T19:57:47.165Z,22.27
2022-08-26T20:00:16.148Z,20.77
2022-08-26T20:02:44.046Z,21.65
2022-08-26T20:05:12.858Z,20.92
2022-08-26T20:07:40.516Z,21.40
2022-08-26T20:10:12.363Z,20.83
2022-08-26T20:12:41.519Z,21.77
2022-08-26T20:15:09.848Z,21.42
2022-08-26T20:17:37.490Z,21.40
2022-08-26T20:20:33.436Z,22.85
2022-08-26T20:23:01.882Z,22.13
2022-08-26T20:25:32.416Z,20.90
2022-08-26T20:28:00.057Z,27.40
2022-08-26T20:30:27.708Z,22.08
2022-08-26T20:32:55.436Z,25.20
2022-08-26T20:35:23.855Z,21.77
2022-08-26T20:37:51.466Z,21.58
2022-08-26T20:40:19.154Z,23.38
2022-08-26T20:42:48.265Z,21.95
2022-08-26T20:45:15.912Z,23.38
2022-08-26T20:47:44.075Z,20.65
2022-08-26T20:50:11.686Z,21.40
2022-08-26T20:52:39.369Z,21.27
2022-08-26T20:55:07.542Z,26.70
2022-08-26T20:57:35.477Z,24.88
2022-08-26T21:00:05.225Z,21.75
2022-08-26T21:02:32.940Z,21.35
2022-08-26T21:05:00.719Z,21.45
2022-08-26T21:07:28.565Z,20.45
2022-08-26T21:09:57.665Z,20.63
2022-08-26T21:12:26.543Z,25.45
2022-08-26T21:14:54.864Z,21.58
2022-08-26T21:17:23.829Z,25.00
2022-08-26T21:19:51.455Z,20.33
2022-08-26T21:22:19.144Z,23.30
2022-08-26T21:24:46.720Z,23.13
2022-08-26T21:27:14.599Z,22.08
2022-08-26T21:29:50.723Z,21.08
2022-08-26T21:32:19.741Z,22.58
2022-08-26T21:34:48.789Z,23.17
2022-08-26T21:37:17.125Z,22.25
2022-08-26T21:39:44.961Z,22.27
2022-08-26T21:42:12.609Z,24.08
2022-08-26T21:44:40.261Z,26.98
2022-08-26T21:47:07.914Z,22.60
2022-08-26T21:49:36.267Z,23.65
2022-08-26T21:52:05.650Z,24.83
2022-08-26T21:54:33.405Z,24.83
2022-08-26T21:57:01.135Z,27.15
2022-08-26T21:59:28.911Z,23.77
2022-08-26T22:01:57.107Z,26.92
2022-08-26T22:04:25.191Z,25.48
2022-08-26T22:06:54.264Z,24.48
2022-08-26T22:09:23.864Z,26.02
2022-08-26T22:11:52.402Z,22.02
2022-08-26T22:14:21.898Z,26.58
2022-08-26T22:16:50.669Z,30.25
2022-08-26T22:19:19.886Z,30.50
2022-08-26T22:21:49.359Z,22.92
2022-08-26T22:24:17.338Z,31.70
2022-08-26T22:26:47.116Z,25.65
2022-08-26T22:29:15.047Z,37.30
2022-08-26T22:31:43.347Z,29.85
2022-08-26T22:34:12.657Z,30.83
2022-08-26T22:36:43.718Z,29.40
2022-08-26T22:39:12.766Z,28.52
2022-08-26T22:41:40.487Z,24.88
2022-08-26T22:44:10.282Z,27.30
2022-08-26T22:46:38.780Z,30.70
2022-08-26T22:49:06.836Z,32.15
2022-08-26T22:51:34.458Z,29.45
2022-08-26T22:54:02.245Z,29.20
2022-08-26T22:56:29.910Z,31.60
2022-08-26T22:58:57.560Z,28.10
2022-08-26T23:01:26.677Z,27.40
2022-08-26T23:03:54.491Z,29.50
2022-08-26T23:06:22.081Z,30.52
2022-08-26T23:08:49.744Z,28.17
2022-08-26T23:11:17.840Z,34.83
2022-08-26T23:13:45.500Z,36.25
2022-08-26T23:16:13.511Z,31.73
2022-08-26T23:18:42.991Z,33.58
2022-08-26T23:21:10.749Z,39.10
2022-08-26T23:23:38.811Z,34.72
2022-08-26T23:26:07.540Z,34.40
2022-08-26T23:28:35.563Z,40.30
2022-08-26T23:31:03.423Z,35.03
2022-08-26T23:33:44.940Z,36.28
2022-08-26T23:36:17.821Z,36.00
2022-08-26T23:38:52.443Z,33.50
2022-08-26T23:41:20.650Z,38.05
2022-08-26T23:43:48.231Z,40.53
2022-08-26T23:46:16.291Z,33.58
2022-08-26T23:48:43.935Z,38.22
2022-08-26T23:51:29.515Z,43.47
2022-08-26T23:53:58.513Z,43.20
2022-08-26T23:56:26.758Z,44.17
2022-08-26T23:58:54.578Z,42.97
